Time;durP1;ratioP1;P1;durP2;ratioP2;P2;SDS_P1;SDS_P2;PMS_P1;PMS_P2;Temp;Humidity;BMP_temperature;BMP_pressure;BME280_temperature;BME280_humidity;BME280_pressure;Samples;Min_cycle;Max_cycle;Signal;HPM_P1;HPM_P2
2021/05/04 00:01:47;;;;;;;2.97;2.30;;;;;;;8.56;77.05;98387.44;5043600;28;45354;-81
2021/05/04 00:04:12;;;;;;;3.60;2.60;;;;;;;8.26;77.76;98385.72;5052635;28;45536;-81
2021/05/04 00:06:38;;;;;;;4.10;2.30;;;;;;;8.45;76.58;98383.09;5038846;28;46583;-81
2021/05/04 00:09:05;;;;;;;3.25;2.30;;;;;;;8.62;75.24;98383.41;5038159;28;45377;-81
2021/05/04 00:11:30;;;;;;;5.45;2.90;;;;;;;8.35;78.20;98376.13;5047480;28;45360;-80
2021/05/04 00:13:56;;;;;;;5.05;2.50;;;;;;;8.37;78.71;98377.63;5038904;28;45322;-80
2021/05/04 00:16:22;;;;;;;4.43;2.75;;;;;;;8.36;77.41;98378.63;5038477;28;45908;-81
2021/05/04 00:18:48;;;;;;;4.18;2.33;;;;;;;8.59;77.07;98381.03;5038858;28;45359;-81
2021/05/04 00:21:13;;;;;;;5.60;2.80;;;;;;;8.72;78.46;98372.78;5038634;28;45390;-81
2021/05/04 00:23:39;;;;;;;3.22;2.60;;;;;;;8.62;77.77;98372.81;5038563;28;45276;-81
2021/05/04 00:26:04;;;;;;;3.67;2.40;;;;;;;8.71;75.06;98374.63;5038253;28;45442;-80
2021/05/04 00:28:30;;;;;;;6.90;3.03;;;;;;;8.60;78.52;98370.28;5040763;28;45256;-81
2021/05/04 00:30:55;;;;;;;4.65;2.63;;;;;;;8.41;76.99;98364.97;5054081;28;45375;-81
2021/05/04 00:33:21;;;;;;;3.33;2.70;;;;;;;8.34;78.83;98362.03;5038244;28;45452;-81
2021/05/04 00:35:47;;;;;;;4.28;2.80;;;;;;;8.49;78.42;98361.63;5049484;28;46106;-81
2021/05/04 00:38:12;;;;;;;6.28;2.78;;;;;;;8.51;77.90;98355.22;5051135;28;45274;-82
2021/05/04 00:40:38;;;;;;;3.35;2.50;;;;;;;8.23;77.93;98351.56;5045674;28;45362;-81
2021/05/04 00:43:03;;;;;;;4.72;2.90;;;;;;;8.21;78.60;98346.41;5051234;28;45348;-81
2021/05/04 00:45:29;;;;;;;3.55;2.95;;;;;;;8.32;79.72;98345.41;5045513;28;48032;-81
2021/05/04 00:47:54;;;;;;;2.67;2.28;;;;;;;8.37;75.57;98337.06;5066913;28;45376;-81
2021/05/04 00:50:19;;;;;;;4.20;2.70;;;;;;;8.42;75.45;98335.69;5053520;28;45425;-81
2021/05/04 00:52:45;;;;;;;3.92;2.80;;;;;;;8.59;75.52;98341.28;5037702;28;45377;-82
2021/05/04 00:55:11;;;;;;;3.72;2.78;;;;;;;7.99;77.74;98335.09;5037983;28;45459;-82
2021/05/04 00:57:38;;;;;;;6.38;3.00;;;;;;;8.27;77.83;98342.34;5037640;28;45299;-82
2021/05/04 01:00:05;;;;;;;5.80;2.70;;;;;;;8.39;76.29;98328.00;5038096;28;45298;-82
2021/05/04 01:02:34;;;;;;;3.53;2.33;;;;;;;8.10;78.24;98328.00;5048501;28;45444;-82
2021/05/04 01:05:00;;;;;;;4.47;2.50;;;;;;;8.10;79.65;98328.81;5044146;28;46149;-81
2021/05/04 01:07:27;;;;;;;3.85;2.45;;;;;;;8.07;78.80;98326.47;5037595;28;45378;-81
2021/05/04 01:09:53;;;;;;;5.20;2.50;;;;;;;8.04;77.45;98329.38;5037735;28;45426;-80
2021/05/04 01:12:19;;;;;;;3.47;2.38;;;;;;;7.99;77.48;98327.16;5036513;28;45286;-80
2021/05/04 01:14:44;;;;;;;3.90;2.55;;;;;;;7.97;77.14;98322.97;5037479;28;45262;-80
2021/05/04 01:17:10;;;;;;;4.45;2.78;;;;;;;8.05;76.28;98327.59;5038805;28;45432;-81
2021/05/04 01:19:35;;;;;;;3.50;2.30;;;;;;;7.92;78.54;98322.53;5037718;28;45275;-81
2021/05/04 01:22:01;;;;;;;5.05;2.95;;;;;;;8.01;78.05;98322.56;5037611;28;45284;-82
2021/05/04 01:24:26;;;;;;;4.03;2.75;;;;;;;8.09;78.13;98319.22;5037505;28;46099;-82
2021/05/04 01:26:52;;;;;;;6.18;3.25;;;;;;;8.05;77.39;98322.28;5040076;28;45386;-82
2021/05/04 01:29:18;;;;;;;5.10;3.33;;;;;;;7.98;78.83;98322.00;5037779;28;45294;-82
2021/05/04 01:31:43;;;;;;;4.32;2.92;;;;;;;7.79;78.04;98328.09;5037445;28;45410;-81
2021/05/04 01:34:12;;;;;;;4.85;2.80;;;;;;;7.92;78.38;98323.38;5037397;28;45394;-81
2021/05/04 01:36:38;;;;;;;4.70;2.95;;;;;;;7.95;77.91;98316.97;5040837;28;45533;-81
2021/05/04 01:39:05;;;;;;;7.38;3.60;;;;;;;7.62;79.12;98317.19;5039509;28;45478;-81
2021/05/04 01:41:31;;;;;;;6.15;4.05;;;;;;;7.69;78.01;98323.59;5037190;28;45585;-82
2021/05/04 01:44:00;;;;;;;4.45;2.80;;;;;;;7.65;78.15;98319.56;5037132;28;45322;-81
2021/05/04 01:46:25;;;;;;;4.93;2.92;;;;;;;7.68;77.99;98319.28;5037179;28;45326;-81
2021/05/04 01:48:52;;;;;;;5.43;2.67;;;;;;;7.64;78.90;98315.22;5037452;28;45398;-81
2021/05/04 01:51:17;;;;;;;4.10;2.90;;;;;;;7.62;79.41;98316.34;5037537;28;45555;-81
2021/05/04 01:53:43;;;;;;;4.85;2.55;;;;;;;7.54;79.59;98309.09;5036909;28;45378;-81
2021/05/04 01:56:09;;;;;;;5.97;2.65;;;;;;;7.59;79.23;98314.81;5039635;28;45314;-81
2021/05/04 01:58:34;;;;;;;3.63;2.58;;;;;;;7.63;78.06;98310.09;5050524;28;45331;-81
2021/05/04 02:00:59;;;;;;;4.97;2.92;;;;;;;7.68;77.90;98313.16;5037492;28;45405;-81
2021/05/04 02:03:25;;;;;;;4.25;2.60;;;;;;;7.91;76.48;98307.63;5046965;28;46187;-81
2021/05/04 02:05:50;;;;;;;5.63;2.58;;;;;;;7.90;77.37;98309.41;5040605;28;45395;-81
2021/05/04 02:08:16;;;;;;;3.72;2.72;;;;;;;7.78;78.66;98321.97;5040258;28;45374;-81
2021/05/04 02:10:41;;;;;;;3.22;2.47;;;;;;;7.77;79.17;98320.28;5043313;28;45476;-81
2021/05/04 02:13:07;;;;;;;4.03;2.55;;;;;;;7.78;76.74;98319.31;5040258;28;45946;-83
2021/05/04 02:15:32;;;;;;;3.63;2.75;;;;;;;7.86;77.35;98313.31;5040811;28;45426;-82
2021/05/04 02:17:58;;;;;;;3.65;2.55;;;;;;;7.69;78.58;98325.44;5040473;28;45567;-82
2021/05/04 02:20:24;;;;;;;3.38;2.55;;;;;;;7.83;77.18;98326.84;5055942;28;45342;-82
2021/05/04 02:22:49;;;;;;;3.45;2.55;;;;;;;7.90;77.19;98322.66;5039943;28;46221;-82
2021/05/04 02:25:15;;;;;;;3.65;2.63;;;;;;;7.69;79.51;98322.78;5040380;28;45321;-82
2021/05/04 02:27:40;;;;;;;3.55;2.50;;;;;;;7.85;77.50;98323.09;5042991;28;45400;-83
2021/05/04 02:30:06;;;;;;;3.40;2.40;;;;;;;7.84;77.51;98331.16;5040079;28;45398;-83
2021/05/04 02:32:34;;;;;;;3.38;2.80;;;;;;;7.78;77.04;98321.13;5042399;28;45584;-83
2021/05/04 02:34:59;;;;;;;3.05;2.30;;;;;;;7.81;77.56;98324.34;5053971;28;45382;-82
2021/05/04 02:37:25;;;;;;;3.13;2.50;;;;;;;7.65;76.75;98322.22;5059632;28;45488;-83
2021/05/04 02:39:50;;;;;;;4.88;2.92;;;;;;;7.57;79.16;98319.41;5050669;28;45296;-83
2021/05/04 02:42:16;;;;;;;5.30;2.80;;;;;;;7.56;78.54;98312.44;5045807;28;45401;-83
2021/05/04 02:44:41;;;;;;;4.03;2.88;;;;;;;7.42;78.06;98309.19;5040173;28;45228;-83
2021/05/04 02:47:06;;;;;;;4.70;2.67;;;;;;;7.40;78.87;98307.63;5040136;28;45476;-83
2021/05/04 02:49:32;;;;;;;4.82;2.80;;;;;;;7.51;77.86;98306.72;5040103;28;45311;-83
2021/05/04 02:51:57;;;;;;;4.05;2.80;;;;;;;7.31;78.35;98309.31;5049296;28;45963;-83
2021/05/04 02:54:23;;;;;;;4.88;2.90;;;;;;;7.39;77.24;98313.91;5052974;28;45222;-83
2021/05/04 02:56:48;;;;;;;3.92;2.70;;;;;;;7.40;77.60;98313.78;5062607;28;45531;-83
2021/05/04 02:59:14;;;;;;;3.75;2.50;;;;;;;7.19;78.78;98305.06;5057871;28;45389;-83
2021/05/04 03:01:40;;;;;;;7.15;3.13;;;;;;;7.05;78.36;98304.44;5049207;28;45815;-83
2021/05/04 03:04:05;;;;;;;4.22;2.75;;;;;;;7.04;78.88;98297.47;5052574;28;45320;-81
2021/05/04 03:06:30;;;;;;;4.25;2.95;;;;;;;7.07;78.93;98297.25;5053097;28;45394;-81
2021/05/04 03:08:57;;;;;;;5.18;3.35;;;;;;;7.17;78.97;98293.78;5039408;28;45381;-81
2021/05/04 03:11:23;;;;;;;6.35;3.60;;;;;;;7.13;80.32;98288.78;5039715;28;45410;-82
2021/05/04 03:13:48;;;;;;;4.82;3.13;;;;;;;7.31;78.35;98296.06;5039491;28;45176;-83
2021/05/04 03:16:14;;;;;;;4.43;2.80;;;;;;;7.42;78.34;98300.41;5039774;28;45275;-82
2021/05/04 03:18:39;;;;;;;5.53;2.67;;;;;;;7.02;80.51;98288.84;5039675;28;45246;-83
2021/05/04 03:21:04;;;;;;;4.03;3.10;;;;;;;7.04;79.12;98288.72;5039393;28;45283;-83
2021/05/04 03:23:30;;;;;;;3.22;2.58;;;;;;;7.10;79.04;98288.19;5039315;28;45296;-83
2021/05/04 03:25:56;;;;;;;3.20;2.90;;;;;;;7.20;78.25;98282.94;5039530;28;45397;-83
2021/05/04 03:28:21;;;;;;;4.60;3.00;;;;;;;7.10;81.28;98282.91;5046405;28;45544;-82
2021/05/04 03:30:47;;;;;;;8.10;3.17;;;;;;;7.23;80.50;98283.50;5059091;28;45509;-83
2021/05/04 03:33:12;;;;;;;5.35;3.05;;;;;;;7.19;79.67;98281.28;5054875;28;45452;-83
2021/05/04 03:35:38;;;;;;;5.13;3.70;;;;;;;7.23;79.23;98286.16;5047793;28;45254;-83
2021/05/04 03:38:03;;;;;;;5.20;3.13;;;;;;;7.03;80.71;98279.09;5053386;28;45411;-82
2021/05/04 03:40:29;;;;;;;4.90;3.25;;;;;;;6.82;80.63;98280.00;5039263;28;46042;-83
2021/05/04 03:42:55;;;;;;;3.95;2.72;;;;;;;7.09;78.27;98276.78;5038718;28;45419;-83
2021/05/04 03:45:20;;;;;;;4.50;2.90;;;;;;;7.09;79.22;98273.28;5039297;28;45300;-83
2021/05/04 03:47:47;;;;;;;4.25;3.10;;;;;;;6.97;80.03;98270.75;5038933;28;45400;-83
2021/05/04 03:50:16;;;;;;;4.03;3.05;;;;;;;6.99;80.96;98274.09;5037628;28;47056;-83
2021/05/04 03:52:42;;;;;;;3.70;2.92;;;;;;;7.04;80.67;98272.84;5054072;28;45472;-83
2021/05/04 03:55:08;;;;;;;4.80;2.97;;;;;;;7.16;79.01;98277.06;5047216;28;45480;-81
2021/05/04 03:57:34;;;;;;;6.00;3.30;;;;;;;6.82;80.46;98272.88;5052953;28;45483;-81
2021/05/04 03:59:59;;;;;;;4.50;2.90;;;;;;;6.75;81.61;98269.09;5038816;28;45336;-82
2021/05/04 04:02:25;;;;;;;4.43;3.08;;;;;;;7.01;79.32;98263.38;5048574;28;45389;-82
2021/05/04 04:04:50;;;;;;;4.47;3.08;;;;;;;7.09;80.43;98270.66;5057735;28;45498;-82
2021/05/04 04:07:16;;;;;;;4.60;3.00;;;;;;;6.74;82.54;98277.16;5039157;28;45366;-82
2021/05/04 04:09:41;;;;;;;3.38;2.88;;;;;;;6.89;81.08;98283.78;5040754;28;46085;-83
2021/05/04 04:12:07;;;;;;;5.20;2.95;;;;;;;7.05;80.24;98274.53;5052369;28;45309;-83
2021/05/04 04:14:33;;;;;;;4.65;3.22;;;;;;;6.82;81.19;98282.63;5038846;28;45300;-82
2021/05/04 04:16:58;;;;;;;5.05;2.95;;;;;;;6.63;82.09;98280.72;5038639;28;45615;-83
2021/05/04 04:19:23;;;;;;;5.22;3.10;;;;;;;6.80;82.11;98284.56;5046838;28;47450;-83
2021/05/04 04:21:49;;;;;;;6.78;3.13;;;;;;;6.78;81.67;98278.59;5067096;28;45807;-83
2021/05/04 04:24:16;;;;;;;5.30;2.90;;;;;;;6.74;81.43;98295.69;5039288;28;45263;-81
2021/05/04 04:26:41;;;;;;;3.70;2.90;;;;;;;6.78;80.93;98300.56;5040148;28;45493;-81
2021/05/04 04:29:07;;;;;;;4.20;2.92;;;;;;;6.78;81.01;98297.09;5038158;28;45500;-81
2021/05/04 04:31:32;;;;;;;6.70;3.50;;;;;;;6.71;81.50;98302.03;5038387;28;45271;-81
2021/05/04 04:33:57;;;;;;;4.63;2.67;;;;;;;6.90;80.87;98301.31;5038498;28;45247;-82
2021/05/04 04:36:23;;;;;;;4.78;3.20;;;;;;;6.95;80.47;98304.41;5052799;28;45457;-82
2021/05/04 04:38:48;;;;;;;6.65;3.72;;;;;;;6.67;81.73;98309.41;5046447;28;45435;-83
2021/05/04 04:41:14;;;;;;;4.38;3.53;;;;;;;6.89;80.22;98318.16;5051976;28;45341;-82
2021/05/04 04:43:39;;;;;;;5.47;3.60;;;;;;;6.80;80.61;98311.84;5048540;28;45465;-82
2021/05/04 04:46:04;;;;;;;4.85;3.30;;;;;;;6.74;80.53;98311.53;5046809;28;45278;-82
2021/05/04 04:48:30;;;;;;;3.95;3.13;;;;;;;6.79;81.54;98309.34;5056198;28;46970;-82
2021/05/04 04:50:55;;;;;;;5.03;3.38;;;;;;;6.82;79.75;98311.72;5041147;28;45484;-83
2021/05/04 04:53:21;;;;;;;3.67;3.00;;;;;;;6.85;78.95;98312.28;5048551;28;45340;-82
2021/05/04 04:55:46;;;;;;;5.68;3.00;;;;;;;6.98;78.86;98317.38;5053756;28;45396;-80
2021/05/04 04:58:11;;;;;;;7.10;3.05;;;;;;;7.10;79.20;98314.63;5051026;28;45410;-81
2021/05/04 05:00:37;;;;;;;4.32;3.00;;;;;;;7.06;80.17;98313.22;5037961;28;45358;-80
2021/05/04 05:03:02;;;;;;;5.75;3.08;;;;;;;6.94;79.82;98315.94;5047646;28;45325;-81
2021/05/04 05:05:28;;;;;;;5.22;3.33;;;;;;;7.09;80.58;98315.59;5045274;28;45422;-81
2021/05/04 05:07:53;;;;;;;4.65;3.55;;;;;;;6.81;81.26;98324.06;5050142;28;48502;-82
2021/05/04 05:10:19;;;;;;;4.93;3.30;;;;;;;6.94;81.90;98321.25;5039989;28;45276;-81
2021/05/04 05:12:44;;;;;;;7.65;3.17;;;;;;;7.07;80.90;98323.69;5046161;28;45304;-80
2021/05/04 05:15:10;;;;;;;6.10;3.47;;;;;;;7.08;80.88;98322.72;5037273;28;45332;-80
2021/05/04 05:17:36;;;;;;;4.25;2.78;;;;;;;6.99;80.18;98326.97;5038136;28;46063;-81
2021/05/04 05:20:01;;;;;;;4.47;3.20;;;;;;;7.01;79.77;98330.31;5056066;28;45345;-79
2021/05/04 05:22:28;;;;;;;4.47;3.20;;;;;;;7.17;80.80;98336.13;5046197;28;45476;-81
2021/05/04 05:24:55;;;;;;;4.10;3.00;;;;;;;7.31;79.48;98343.69;5053463;28;45894;-80
2021/05/04 05:27:21;;;;;;;4.22;3.20;;;;;;;7.39;78.71;98333.28;5042376;28;45817;-83
2021/05/04 05:29:46;;;;;;;4.25;2.90;;;;;;;7.26;79.27;98333.50;5042715;28;45367;-81
2021/05/04 05:32:12;;;;;;;5.90;3.35;;;;;;;7.32;79.74;98329.50;5044789;28;45395;-80
2021/05/04 05:34:38;;;;;;;3.83;3.13;;;;;;;7.27;80.43;98332.53;5044853;28;45430;-80
2021/05/04 05:37:04;;;;;;;4.70;3.00;;;;;;;7.09;82.00;98334.13;5042596;28;46321;-81
2021/05/04 05:39:29;;;;;;;7.85;5.63;;;;;;;7.24;79.88;98327.50;5051490;28;45332;-81
2021/05/04 05:41:55;;;;;;;11.10;5.00;;;;;;;7.02;80.24;98336.44;5046985;28;45353;-80
2021/05/04 05:44:21;;;;;;;7.45;4.85;;;;;;;7.05;80.44;98332.69;5053915;28;45601;-79
2021/05/04 05:46:46;;;;;;;5.35;3.50;;;;;;;6.97;81.48;98338.63;5050053;28;46372;-79
2021/05/04 05:49:11;;;;;;;5.07;3.55;;;;;;;7.08;82.58;98335.94;5053026;28;45444;-80
2021/05/04 05:51:40;;;;;;;4.43;3.60;;;;;;;7.08;83.28;98337.72;5057111;28;45477;-79
2021/05/04 05:54:05;;;;;;;5.95;3.80;;;;;;;7.20;81.55;98335.84;5058075;28;45356;-80
2021/05/04 05:56:31;;;;;;;6.72;4.60;;;;;;;7.19;82.13;98334.16;5046642;28;45396;-79
2021/05/04 05:58:56;;;;;;;5.93;3.90;;;;;;;7.13;83.07;98311.72;5039476;28;45421;-79
2021/05/04 06:01:22;;;;;;;5.03;3.20;;;;;;;6.98;82.18;98314.72;5039875;28;45447;-80
2021/05/04 06:03:47;;;;;;;5.35;3.33;;;;;;;7.24;82.41;98310.81;5048277;28;45554;-80
2021/05/04 06:06:12;;;;;;;6.15;3.88;;;;;;;7.40;81.04;98313.78;5045668;28;45983;-80
2021/05/04 06:08:38;;;;;;;4.70;3.28;;;;;;;7.29;81.99;98308.59;5058027;28;45445;-80
2021/05/04 06:11:03;;;;;;;4.63;3.28;;;;;;;7.28;82.66;98302.44;5051902;28;45504;-80
2021/05/04 06:13:29;;;;;;;4.47;3.53;;;;;;;7.40;83.41;98302.34;5041457;28;45314;-80
2021/05/04 06:15:54;;;;;;;5.22;3.22;;;;;;;7.48;81.91;98307.81;5043708;28;46043;-80
2021/05/04 06:18:20;;;;;;;11.02;3.83;;;;;;;7.50;80.90;98312.97;5059385;28;45334;-80
2021/05/04 06:20:46;;;;;;;8.05;3.80;;;;;;;7.52;80.81;98311.88;5040135;28;45362;-80
2021/05/04 06:23:11;;;;;;;13.73;4.35;;;;;;;7.41;83.02;98307.53;5040421;28;45411;-80
2021/05/04 06:25:37;;;;;;;4.88;3.63;;;;;;;7.40;81.23;98305.84;5056558;28;45420;-80
2021/05/04 06:28:07;;;;;;;5.78;3.58;;;;;;;7.46;80.70;98312.38;5042169;28;45172;-80
2021/05/04 06:30:36;;;;;;;4.82;3.30;;;;;;;7.69;79.49;98301.59;5045220;28;45369;-80
2021/05/04 06:33:10;;;;;;;4.78;3.40;;;;;;;7.80;80.62;98300.63;5056396;28;45587;-79
2021/05/04 06:35:40;;;;;;;6.57;3.85;;;;;;;7.95;80.57;98307.22;5058941;28;46399;-79
2021/05/04 06:38:06;;;;;;;4.80;3.45;;;;;;;8.07;81.11;98315.03;5053769;28;45409;-79
2021/05/04 06:40:32;;;;;;;7.00;4.00;;;;;;;7.58;83.41;98318.44;5041138;28;45404;-80
2021/05/04 06:42:59;;;;;;;8.10;4.63;;;;;;;7.28;83.53;98323.63;5051107;28;45533;-79
2021/05/04 06:45:25;;;;;;;8.98;4.32;;;;;;;7.37;82.97;98319.34;5039293;28;45444;-79
2021/05/04 06:47:50;;;;;;;10.57;4.45;;;;;;;7.57;81.08;98317.59;5039033;28;45558;-79
2021/05/04 06:50:16;;;;;;;5.85;4.00;;;;;;;7.55;80.49;98311.59;5049722;28;45552;-80
2021/05/04 06:52:42;;;;;;;5.50;3.90;;;;;;;7.67;79.69;98308.84;5051207;28;45430;-80
2021/05/04 06:55:08;;;;;;;5.38;3.80;;;;;;;7.83;79.67;98306.50;5052155;28;45417;-80
2021/05/04 06:57:33;;;;;;;4.68;3.97;;;;;;;7.92;80.12;98304.00;5038818;28;45238;-79
2021/05/04 06:59:59;;;;;;;5.63;3.78;;;;;;;8.17;79.06;98306.09;5040290;28;45574;-80
2021/05/04 07:02:24;;;;;;;4.60;3.45;;;;;;;8.43;77.92;98305.56;5057076;28;45451;-80
2021/05/04 07:04:50;;;;;;;8.93;4.43;;;;;;;8.83;76.69;98308.97;5048281;28;45540;-80
2021/05/04 07:07:15;;;;;;;16.27;4.28;;;;;;;9.14;75.62;98307.91;5052336;28;45361;-79
2021/05/04 07:09:41;;;;;;;22.38;5.72;;;;;;;9.34;73.97;98304.22;5050422;28;45512;-80
2021/05/04 07:12:07;;;;;;;5.40;3.33;;;;;;;9.56;71.78;98304.81;5051478;28;45552;-83
2021/05/04 07:14:32;;;;;;;5.03;2.97;;;;;;;9.82;70.39;98293.47;5052361;28;47800;-82
2021/05/04 07:17:00;;;;;;;15.38;4.75;;;;;;;10.19;69.30;98292.50;5058628;28;45400;-82
2021/05/04 07:19:29;;;;;;;5.40;3.28;;;;;;;10.45;69.50;98288.25;5047940;28;45316;-80
2021/05/04 07:21:55;;;;;;;5.05;3.28;;;;;;;10.70;69.05;98293.75;5049438;28;45566;-81
2021/05/04 07:24:21;;;;;;;5.97;3.60;;;;;;;10.79;67.43;98290.16;5049485;28;45407;-80
2021/05/04 07:26:46;;;;;;;6.57;3.28;;;;;;;11.00;66.70;98295.09;5043066;28;45419;-80
2021/05/04 07:29:12;;;;;;;7.38;3.33;;;;;;;11.38;65.42;98295.63;5056061;28;45409;-81
2021/05/04 07:31:38;;;;;;;8.30;3.47;;;;;;;12.26;61.50;98296.22;5053742;28;45442;-80
2021/05/04 07:34:03;;;;;;;6.70;3.28;;;;;;;13.99;57.53;98291.41;5053402;28;45515;-79
2021/05/04 07:36:30;;;;;;;6.72;3.30;;;;;;;15.73;52.03;98279.03;5053742;28;45319;-80
2021/05/04 07:38:59;;;;;;;5.65;3.22;;;;;;;15.35;53.13;98289.88;5044825;28;45400;-79
2021/05/04 07:41:25;;;;;;;6.00;3.08;;;;;;;14.43;55.08;98286.41;5051357;28;45337;-79
2021/05/04 07:43:51;;;;;;;24.95;6.18;;;;;;;14.15;59.10;98278.94;5038194;28;46073;-80
2021/05/04 07:46:16;;;;;;;17.02;4.40;;;;;;;15.02;56.58;98287.56;5038559;28;45311;-80
2021/05/04 07:48:42;;;;;;;26.88;5.07;;;;;;;14.92;54.35;98287.00;5038588;28;45443;-79
2021/05/04 07:51:08;;;;;;;7.78;3.35;;;;;;;15.00;55.41;98289.59;5038669;28;45461;-79
2021/05/04 07:53:34;;;;;;;4.35;2.78;;;;;;;14.82;51.91;98281.91;5048045;28;47594;-79
2021/05/04 07:55:59;;;;;;;6.03;3.55;;;;;;;14.67;51.74;98285.38;5038367;28;45717;-79
2021/05/04 07:58:25;;;;;;;7.13;3.50;;;;;;;16.02;46.67;98273.78;5038406;28;45215;-79
2021/05/04 08:00:50;;;;;;;4.78;2.90;;;;;;;18.13;42.11;98270.38;5037500;28;45388;-79
2021/05/04 08:03:16;;;;;;;4.05;2.75;;;;;;;19.98;38.65;98265.88;5053546;28;46397;-79
2021/05/04 08:05:41;;;;;;;4.82;3.20;;;;;;;20.10;39.47;98260.63;5038182;28;45224;-80
2021/05/04 08:08:10;;;;;;;3.97;2.95;;;;;;;21.34;36.96;98263.72;5055401;28;45531;-79
2021/05/04 08:10:35;;;;;;;3.38;2.40;;;;;;;22.07;34.81;98263.00;5053632;28;45437;-79
2021/05/04 08:13:03;;;;;;;3.13;2.47;;;;;;;21.89;35.38;98253.88;5046174;28;45408;-79
2021/05/04 08:15:28;;;;;;;5.47;2.80;;;;;;;21.84;37.52;98261.88;5038077;28;45363;-79
2021/05/04 08:18:00;;;;;;;6.28;2.80;;;;;;;21.01;39.38;98250.56;5038272;28;45365;-79
2021/05/04 08:20:30;;;;;;;5.35;2.60;;;;;;;19.54;37.38;98256.75;5038076;28;45497;-79
2021/05/04 08:22:56;;;;;;;4.25;2.75;;;;;;;17.73;40.39;98253.06;5037695;28;46043;-79
2021/05/04 08:25:22;;;;;;;6.10;2.50;;;;;;;18.11;41.87;98242.81;5037708;28;45499;-79
2021/05/04 08:27:48;;;;;;;3.40;2.65;;;;;;;18.91;41.26;98248.16;5061951;28;45364;-79
2021/05/04 08:30:15;;;;;;;4.47;2.88;;;;;;;18.38;40.95;98246.34;5042775;28;45426;-79
2021/05/04 08:32:41;;;;;;;5.63;2.75;;;;;;;18.70;44.28;98240.34;5053462;28;46878;-80
2021/05/04 08:35:07;;;;;;;9.13;3.45;;;;;;;18.56;42.60;98239.53;5041569;28;45421;-79
2021/05/04 08:37:32;;;;;;;6.40;3.00;;;;;;;18.76;41.77;98229.56;5048741;28;45432;-79
2021/05/04 08:39:58;;;;;;;4.93;2.97;;;;;;;18.70;40.17;98227.72;5047451;28;45828;-80
2021/05/04 08:42:23;;;;;;;4.40;2.95;;;;;;;18.64;42.67;98225.88;5053463;28;45313;-80
2021/05/04 08:44:52;;;;;;;4.93;2.83;;;;;;;17.56;42.61;98217.63;5045027;28;45904;-78
2021/05/04 08:47:23;;;;;;;3.67;2.65;;;;;;;18.01;43.88;98217.13;5044898;28;45448;-78
2021/05/04 08:49:49;;;;;;;3.22;2.40;;;;;;;18.31;42.02;98213.22;5050058;28;45626;-80
2021/05/04 08:52:17;;;;;;;4.13;2.58;;;;;;;18.16;43.18;98218.81;5050634;28;45543;-79
2021/05/04 08:54:43;;;;;;;5.38;2.90;;;;;;;18.32;42.86;98210.34;5052424;28;45541;-76
2021/05/04 08:57:09;;;;;;;4.97;2.90;;;;;;;18.35;42.48;98211.78;5044663;28;46037;-75
2021/05/04 08:59:34;;;;;;;4.22;2.60;;;;;;;18.54;43.19;98212.81;5039549;28;45499;-75
2021/05/04 09:02:00;;;;;;;4.93;2.45;;;;;;;18.76;43.85;98207.19;5055121;28;45477;-76
2021/05/04 09:04:42;;;;;;;5.32;2.50;;;;;;;18.53;42.11;98211.16;5042717;28;45591;-75
2021/05/04 09:07:14;;;;;;;4.40;2.33;;;;;;;18.50;42.68;98212.38;5049295;28;45389;-75
2021/05/04 09:10:00;;;;;;;5.75;2.70;;;;;;;18.59;42.64;98201.44;5037444;28;45553;-76
2021/05/04 09:12:37;;;;;;;3.72;2.50;;;;;;;19.30;42.84;98204.38;5045723;28;45346;-76
2021/05/04 09:16:27;;;;;;;4.55;2.42;;;;;;;18.79;41.06;98195.97;5037282;28;45341;-77
2021/05/04 09:21:33;;;;;;;;;;;;;;;18.88;43.07;98183.94;5056745;28;45838;-76
2021/05/04 09:24:15;;;;;;;4.68;2.33;;;;;;;18.55;44.45;98179.47;5038082;28;45550;-76
2021/05/04 09:26:41;;;;;;;5.45;2.30;;;;;;;18.03;43.51;98172.03;5052708;28;45274;-76
2021/05/04 09:29:08;;;;;;;6.28;2.63;;;;;;;17.83;45.68;98171.16;5049837;28;45385;-77
2021/05/04 09:31:35;;;;;;;9.20;2.78;;;;;;;18.20;46.88;98171.63;5037033;28;45557;-76
2021/05/04 09:34:12;;;;;;;5.95;2.55;;;;;;;17.95;46.62;98164.13;5037020;28;45920;-76
2021/05/04 09:36:45;;;;;;;3.15;2.33;;;;;;;17.63;44.99;98158.50;5053078;28;45376;-76
2021/05/04 09:39:25;;;;;;;24.90;4.45;;;;;;;17.59;48.42;98151.88;5042548;28;45345;-77
2021/05/04 09:41:53;;;;;;;4.47;2.40;;;;;;;17.46;44.97;98155.34;5038912;28;45445;-78
2021/05/04 09:44:38;;;;;;;5.45;2.65;;;;;;;17.55;47.53;98147.94;5045055;28;46015;-78
2021/05/04 09:47:05;;;;;;;6.53;2.40;;;;;;;17.64;47.58;98149.41;5052986;28;45437;-76
2021/05/04 09:49:41;;;;;;;5.07;2.80;;;;;;;17.60;47.54;98148.16;5055296;28;45636;-75
2021/05/04 09:52:30;;;;;;;3.95;2.58;;;;;;;17.49;45.80;98139.66;5054406;28;46735;-76
2021/05/04 09:55:09;;;;;;;14.77;3.35;;;;;;;17.47;47.96;98133.66;5049945;28;46172;-77
2021/05/04 09:57:37;;;;;;;6.53;2.47;;;;;;;17.70;47.42;98139.72;5040069;28;45751;-77
2021/05/04 10:00:08;;;;;;;6.10;2.40;;;;;;;17.58;47.29;98131.41;5042487;28;45782;-76
2021/05/04 10:02:35;;;;;;;6.25;2.45;;;;;;;17.47;48.17;98125.59;5053137;28;45345;-78
2021/05/04 10:05:01;;;;;;;6.93;2.70;;;;;;;17.36;49.33;98121.63;5041335;28;45459;-77
2021/05/04 10:07:30;;;;;;;4.70;2.58;;;;;;;17.30;50.08;98124.31;5042173;28;45474;-78
2021/05/04 10:09:58;;;;;;;4.32;2.38;;;;;;;16.99;47.92;98123.81;5051310;28;45341;-77
2021/05/04 10:12:23;;;;;;;6.47;2.30;;;;;;;16.92;46.51;98114.84;5046043;28;45642;-78
2021/05/04 10:14:52;;;;;;;4.65;2.50;;;;;;;17.16;47.17;98112.69;5050827;28;46403;-77
2021/05/04 10:17:19;;;;;;;7.03;2.60;;;;;;;17.19;48.53;98117.66;5042649;28;45408;-78
2021/05/04 10:19:45;;;;;;;7.03;2.80;;;;;;;17.38;47.14;98104.47;5042152;28;45345;-78
2021/05/04 10:22:12;;;;;;;5.28;2.67;;;;;;;17.80;46.30;98108.66;5058541;28;45479;-79
2021/05/04 10:24:40;;;;;;;4.68;2.97;;;;;;;18.34;46.80;98106.00;5058687;28;45982;-78
2021/05/04 10:27:08;;;;;;;5.60;2.70;;;;;;;17.91;44.69;98107.22;5049580;28;46891;-78
2021/05/04 10:29:35;;;;;;;5.30;2.83;;;;;;;17.73;45.05;98104.34;5057413;28;45405;-78
2021/05/04 10:32:00;;;;;;;4.78;2.70;;;;;;;17.74;45.55;98103.31;5056363;28;45263;-79
2021/05/04 10:34:34;;;;;;;6.03;3.00;;;;;;;18.09;47.45;98090.47;5052066;28;46424;-78
2021/05/04 10:37:13;;;;;;;4.30;2.78;;;;;;;18.61;45.67;98081.69;5049834;27;45300;-78
2021/05/04 10:39:38;;;;;;;6.32;3.05;;;;;;;18.98;45.77;98075.78;5047106;28;45480;-77
2021/05/04 10:42:05;;;;;;;6.32;3.33;;;;;;;19.21;45.73;98069.84;5050927;28;45555;-77
2021/05/04 10:44:54;;;;;;;5.28;3.30;;;;;;;19.57;44.17;98072.09;5054230;28;45437;-77
2021/05/04 10:47:44;;;;;;;4.25;3.20;;;;;;;19.05;43.48;98075.75;5051033;28;45515;-76
2021/05/04 10:50:11;;;;;;;6.00;3.30;;;;;;;19.46;44.07;98073.66;5053430;28;45541;-77
2021/05/04 10:52:52;;;;;;;4.15;2.92;;;;;;;19.40;42.20;98067.25;5053517;28;45948;-77
2021/05/04 10:55:20;;;;;;;6.22;2.67;;;;;;;19.67;41.89;98069.75;5056104;28;45361;-76
2021/05/04 10:58:01;;;;;;;5.78;2.88;;;;;;;19.73;42.45;98060.75;5057279;28;45747;-77
2021/05/04 11:00:54;;;;;;;4.05;2.63;;;;;;;19.86;42.85;98062.53;5051683;28;45622;-78
2021/05/04 11:03:34;;;;;;;6.70;3.05;;;;;;;19.36;41.19;98050.66;5047745;28;45569;-78
2021/05/04 11:06:02;;;;;;;;;;;;;;;18.84;41.44;98047.22;5048081;28;47805;-76
2021/05/04 11:11:27;;;;;;;4.30;2.15;;;;;;;19.06;44.08;98035.09;5053217;28;45507;-79
2021/05/04 11:14:06;;;;;;;6.00;2.95;;;;;;;19.06;44.13;98031.59;5051823;28;45440;-77
2021/05/04 11:16:46;;;;;;;5.13;2.95;;;;;;;18.25;42.84;98023.81;5052122;28;46098;-77
2021/05/04 11:19:39;;;;;;;5.82;2.85;;;;;;;18.37;43.98;98013.22;5037917;28;45640;-78
2021/05/04 11:22:07;;;;;;;9.02;3.35;;;;;;;18.51;43.73;98016.69;5051045;28;45305;-77
2021/05/04 11:24:33;;;;;;;7.93;3.20;;;;;;;18.91;45.74;98012.97;5038941;28;45535;-78
2021/05/04 11:27:00;;;;;;;4.15;2.58;;;;;;;19.14;42.27;98012.47;5054171;28;48211;-80
2021/05/04 11:29:31;;;;;;;4.88;2.72;;;;;;;18.85;41.73;98006.56;5048379;28;45397;-78
2021/05/04 11:32:21;;;;;;;3.08;2.30;;;;;;;18.84;42.13;97996.84;5048295;28;45466;-76
2021/05/04 11:34:50;;;;;;;7.43;3.10;;;;;;;18.61;43.06;97994.72;5038610;28;45460;-76
2021/05/04 11:37:18;;;;;;;6.40;3.25;;;;;;;18.96;41.83;97988.91;5058530;28;45336;-78
2021/05/04 11:39:56;;;;;;;4.90;2.63;;;;;;;19.25;44.09;97982.13;5039257;28;45331;-78
2021/05/04 11:43:03;;;;;;;4.38;2.70;;;;;;;19.38;41.65;97980.38;5052471;28;45502;-76
2021/05/04 11:45:31;;;;;;;4.60;2.70;;;;;;;19.36;41.61;97974.38;5043534;28;45354;-78
2021/05/04 11:48:00;;;;;;;5.75;2.53;;;;;;;19.28;41.28;97964.66;5040478;28;46191;-78